Time;durP1;ratioP1;P1;durP2;ratioP2;P2;SDS_P1;SDS_P2;PMS_P1;PMS_P2;Temp;Humidity;BMP_temperature;BMP_pressure;BME280_temperature;BME280_humidity;BME280_pressure;Samples;Min_cycle;Max_cycle;Signal;HPM_P1;HPM_P2
2022/06/09 00:01:02;;;;;;;3.28;3.08;;;;;;;15.35;96.17;100247.22;5060027;28;20024;-82
2022/06/09 00:03:33;;;;;;;3.22;3.03;;;;;;;15.31;95.80;100251.78;5060176;28;20542;-82
2022/06/09 00:05:59;;;;;;;3.78;3.47;;;;;;;15.28;95.89;100249.25;5043791;28;20474;-82
2022/06/09 00:08:25;;;;;;;4.30;3.65;;;;;;;15.27;95.95;100250.22;5043770;28;20035;-82
2022/06/09 00:11:02;;;;;;;3.80;3.50;;;;;;;15.19;95.09;100241.78;5042992;28;20024;-82
2022/06/09 00:13:28;;;;;;;5.63;3.38;;;;;;;15.19;95.44;100247.91;5042924;28;20103;-82
2022/06/09 00:15:54;;;;;;;3.47;3.22;;;;;;;15.21;95.65;100251.34;5043665;28;20394;-82
2022/06/09 00:18:19;;;;;;;3.55;3.28;;;;;;;15.23;96.04;100248.63;5043265;28;20032;-82
2022/06/09 00:20:45;;;;;;;3.50;3.20;;;;;;;15.21;96.13;100256.59;5059604;28;20028;-82
2022/06/09 00:23:13;;;;;;;3.42;3.20;;;;;;;15.21;96.55;100260.97;5043230;28;20111;-82
2022/06/09 00:25:39;;;;;;;3.60;3.40;;;;;;;15.18;95.44;100253.22;5043741;28;20029;-82
2022/06/09 00:28:04;;;;;;;3.17;3.08;;;;;;;15.17;95.88;100254.13;5043413;28;20111;-82
2022/06/09 00:30:30;;;;;;;3.97;3.78;;;;;;;15.16;96.13;100255.03;5043300;28;20028;-82
2022/06/09 00:32:55;;;;;;;3.85;3.65;;;;;;;15.16;96.06;100255.03;5042758;28;20598;-82
2022/06/09 00:35:21;;;;;;;4.00;3.80;;;;;;;15.16;96.29;100258.56;5075846;28;20359;-82
2022/06/09 00:37:46;;;;;;;4.25;4.03;;;;;;;15.18;96.70;100267.22;5043538;28;20021;-82
2022/06/09 00:40:13;;;;;;;4.55;4.25;;;;;;;15.18;96.91;100255.84;5042882;28;20482;-82
2022/06/09 00:42:39;;;;;;;4.43;4.00;;;;;;;15.18;97.27;100259.31;5042460;28;20111;-82
2022/06/09 00:45:24;;;;;;;4.05;3.85;;;;;;;15.18;97.41;100255.84;5042490;28;20490;-82
2022/06/09 00:47:50;;;;;;;4.15;3.95;;;;;;;15.19;97.11;100254.94;5059108;28;20042;-82
2022/06/09 00:50:18;;;;;;;4.53;4.15;;;;;;;15.18;97.26;100250.59;5042516;28;20672;-82
2022/06/09 00:52:58;;;;;;;4.22;3.95;;;;;;;15.19;97.33;100257.56;5042968;28;20025;-82
2022/06/09 00:55:27;;;;;;;4.82;4.28;;;;;;;15.19;97.59;100257.56;5042327;28;20032;-82
2022/06/09 00:57:58;;;;;;;4.38;4.07;;;;;;;15.18;97.46;100255.84;5041343;28;20100;-82
2022/06/09 01:00:28;;;;;;;4.30;4.10;;;;;;;15.18;97.83;100256.69;5059209;28;20024;-82
2022/06/09 01:02:55;;;;;;;4.90;4.70;;;;;;;15.18;97.42;100250.59;5042538;28;20039;-82
2022/06/09 01:05:21;;;;;;;5.13;4.80;;;;;;;15.16;97.88;100260.31;5042768;28;20040;-83
2022/06/09 01:07:51;;;;;;;5.47;4.97;;;;;;;15.15;97.76;100263.88;5060254;28;20047;-83
2022/06/09 01:10:16;;;;;;;5.40;5.00;;;;;;;15.13;98.10;100258.66;5060714;28;20036;-83
2022/06/09 01:12:45;;;;;;;5.60;5.40;;;;;;;15.05;97.25;100255.50;5043036;28;20470;-83
2022/06/09 01:15:17;;;;;;;5.97;5.47;;;;;;;15.03;97.40;100255.56;5043092;28;20463;-83
2022/06/09 01:17:59;;;;;;;5.72;5.32;;;;;;;15.03;97.66;100247.69;5059148;28;20032;-83
2022/06/09 01:20:43;;;;;;;6.20;5.50;;;;;;;15.03;98.22;100255.56;5042664;28;20500;-82
2022/06/09 01:23:26;;;;;;;5.65;5.35;;;;;;;15.02;97.54;100264.41;5077357;28;20052;-82
2022/06/09 01:26:13;;;;;;;5.78;5.38;;;;;;;15.05;97.22;100260.75;5059396;28;20035;-82
2022/06/09 01:29:08;;;;;;;5.45;5.15;;;;;;;15.03;97.80;100257.34;5059810;28;20035;-83
2022/06/09 01:31:40;;;;;;;5.82;5.53;;;;;;;15.01;96.86;100253.91;5038195;28;20044;-82
2022/06/09 01:34:33;;;;;;;6.13;5.60;;;;;;;14.98;97.27;100248.78;5059198;28;20028;-83
2022/06/09 01:37:04;;;;;;;6.30;5.78;;;;;;;14.99;97.97;100250.50;5059327;28;20032;-82
2022/06/09 01:39:50;;;;;;;6.05;5.65;;;;;;;14.98;98.29;100248.78;5059365;28;20032;-83
2022/06/09 01:42:20;;;;;;;5.50;5.10;;;;;;;14.98;98.09;100244.41;5058749;28;20024;-82
2022/06/09 01:44:45;;;;;;;6.13;5.72;;;;;;;14.98;98.11;100241.78;5058920;28;20078;-82
2022/06/09 01:47:12;;;;;;;5.75;5.38;;;;;;;14.98;98.60;100239.16;5042032;28;20024;-82
2022/06/09 01:49:37;;;;;;;6.45;5.95;;;;;;;14.98;98.05;100238.28;5042297;28;20028;-83
2022/06/09 01:52:03;;;;;;;5.18;4.88;;;;;;;14.96;97.81;100234.88;5042234;28;20028;-82
2022/06/09 01:54:32;;;;;;;5.68;5.30;;;;;;;14.94;98.26;100234.91;5041553;28;20086;-82
2022/06/09 01:57:11;;;;;;;5.72;5.32;;;;;;;14.92;97.70;100226.25;5041659;28;20561;-83
2022/06/09 01:59:49;;;;;;;5.03;4.82;;;;;;;14.90;98.40;100232.47;5075377;28;20111;-82
2022/06/09 02:02:21;;;;;;;4.93;4.63;;;;;;;14.88;98.13;100232.53;5041781;28;20478;-82
2022/06/09 02:04:57;;;;;;;4.82;4.53;;;;;;;14.84;98.01;100242.31;5041701;28;20047;-82
2022/06/09 02:07:25;;;;;;;5.65;5.25;;;;;;;14.83;98.36;100237.13;5041376;28;20111;-83
2022/06/09 02:09:51;;;;;;;5.50;5.05;;;;;;;14.79;98.24;100235.56;5041534;28;20036;-82
2022/06/09 02:12:22;;;;;;;5.60;5.15;;;;;;;14.74;98.34;100240.13;5058390;28;20028;-82
2022/06/09 02:14:50;;;;;;;5.40;5.10;;;;;;;14.70;98.19;100240.28;5042301;28;20028;-83
2022/06/09 02:17:16;;;;;;;6.30;5.53;;;;;;;14.65;98.27;100236.97;5041545;28;20046;-83
2022/06/09 02:19:42;;;;;;;5.75;5.45;;;;;;;14.63;98.33;100249.31;5041551;28;20368;-82
2022/06/09 02:22:09;;;;;;;5.20;5.00;;;;;;;14.61;98.88;100250.28;5058542;28;20500;-82
2022/06/09 02:24:35;;;;;;;5.35;5.05;;;;;;;14.58;98.45;100251.25;5058509;28;20017;-82
2022/06/09 02:27:00;;;;;;;5.03;4.72;;;;;;;14.59;98.51;100250.34;5040964;28;20021;-82
2022/06/09 02:29:26;;;;;;;5.28;5.07;;;;;;;14.58;98.77;100256.50;5039334;28;20397;-81
2022/06/09 02:31:52;;;;;;;5.88;5.47;;;;;;;14.56;98.55;100250.47;5040667;28;20521;-82
2022/06/09 02:34:17;;;;;;;5.50;5.10;;;;;;;14.54;97.86;100250.50;5057141;28;20052;-82
2022/06/09 02:36:43;;;;;;;4.82;4.47;;;;;;;14.54;98.07;100257.53;5040840;28;20031;-82
2022/06/09 02:39:09;;;;;;;5.15;4.60;;;;;;;14.53;98.17;100259.31;5057511;28;20024;-82
2022/06/09 02:41:35;;;;;;;5.63;5.15;;;;;;;14.54;98.66;100254.91;5040634;28;20025;-82
2022/06/09 02:44:00;;;;;;;5.30;4.90;;;;;;;14.52;98.54;100254.13;5057052;28;20017;-82
2022/06/09 02:46:26;;;;;;;4.68;4.38;;;;;;;14.53;98.40;100253.19;5040474;28;20116;-82
2022/06/09 02:48:53;;;;;;;4.35;4.15;;;;;;;14.44;97.78;100250.91;5056750;28;20029;-81
2022/06/09 02:51:31;;;;;;;4.55;4.25;;;;;;;14.45;97.07;100250.00;5041111;28;20134;-82
2022/06/09 02:53:59;;;;;;;3.85;3.65;;;;;;;14.41;97.19;100251.06;5056764;28;20074;-82
2022/06/09 02:56:25;;;;;;;3.70;3.45;;;;;;;14.42;97.58;100255.41;5040283;28;20033;-81
2022/06/09 02:58:51;;;;;;;4.72;4.05;;;;;;;14.43;96.71;100257.13;5053417;22;20051;-84
2022/06/09 03:01:17;;;;;;;3.92;3.63;;;;;;;14.35;96.72;100250.38;5038799;28;20436;-84
2022/06/09 03:03:42;;;;;;;4.18;3.83;;;;;;;14.28;96.73;100251.53;5038351;28;20020;-84
2022/06/09 03:06:08;;;;;;;3.72;3.42;;;;;;;14.25;96.42;100251.66;5038501;28;20117;-84
2022/06/09 03:08:33;;;;;;;3.33;3.22;;;;;;;14.25;96.50;100250.78;5038780;28;20024;-84
2022/06/09 03:10:59;;;;;;;3.95;3.65;;;;;;;14.24;96.35;100249.94;5038833;28;20029;-84
2022/06/09 03:13:24;;;;;;;8.25;4.65;;;;;;;14.19;95.92;100259.75;5038062;28;20016;-84
2022/06/09 03:15:50;;;;;;;4.93;4.60;;;;;;;14.13;95.83;100257.38;5038699;28;20052;-84
2022/06/09 03:18:17;;;;;;;4.68;4.38;;;;;;;14.15;95.54;100260.78;5039031;28;20493;-84
2022/06/09 03:20:42;;;;;;;5.75;5.35;;;;;;;14.13;94.94;100265.25;5037572;28;20081;-84
2022/06/09 03:23:08;;;;;;;5.22;4.85;;;;;;;14.11;95.44;100278.44;5038856;28;20021;-84
2022/06/09 03:25:33;;;;;;;5.70;5.30;;;;;;;14.10;95.80;100273.25;5038756;28;20085;-85
2022/06/09 03:27:59;;;;;;;6.60;6.10;;;;;;;14.09;96.49;100271.53;5038312;28;20060;-83
2022/06/09 03:30:24;;;;;;;6.60;6.10;;;;;;;14.08;96.23;100272.44;5038475;28;20033;-84
2022/06/09 03:32:50;;;;;;;7.00;6.40;;;;;;;14.09;96.66;100275.00;5038519;28;20033;-84
2022/06/09 03:35:15;;;;;;;8.05;7.55;;;;;;;14.11;96.79;100277.56;5038162;28;20028;-84
2022/06/09 03:37:41;;;;;;;7.85;7.25;;;;;;;14.13;97.20;100281.88;5038164;28;20111;-83
2022/06/09 03:40:10;;;;;;;9.32;8.43;;;;;;;14.13;97.15;100275.75;5037817;28;20016;-85
2022/06/09 03:42:35;;;;;;;9.60;8.75;;;;;;;14.10;96.32;100283.78;5054613;28;20109;-84
2022/06/09 03:45:01;;;;;;;9.43;8.70;;;;;;;14.12;95.78;100281.94;5037702;28;20495;-84
2022/06/09 03:47:27;;;;;;;10.35;9.32;;;;;;;14.07;95.13;100282.09;5038359;28;20051;-84
2022/06/09 03:49:52;;;;;;;9.63;8.73;;;;;;;14.07;95.43;100278.59;5037823;28;20036;-84
2022/06/09 03:52:17;;;;;;;12.13;10.38;;;;;;;14.10;95.60;100275.88;5054251;28;20025;-84
2022/06/09 03:54:43;;;;;;;11.00;9.90;;;;;;;14.09;95.65;100290.78;5037936;28;20394;-84
2022/06/09 03:57:09;;;;;;;11.98;10.85;;;;;;;14.12;95.57;100285.41;5037756;28;20033;-84
2022/06/09 03:59:34;;;;;;;13.93;12.52;;;;;;;14.13;95.95;100286.28;5038068;28;20544;-84
2022/06/09 04:02:00;;;;;;;14.85;13.02;;;;;;;14.12;96.10;100287.19;5038012;28;20025;-84
2022/06/09 04:04:25;;;;;;;16.20;13.52;;;;;;;14.10;96.15;100283.78;5055474;28;20016;-81
2022/06/09 04:06:51;;;;;;;14.35;12.50;;;;;;;14.10;96.44;100281.97;5038805;28;20047;-81
2022/06/09 04:09:16;;;;;;;15.52;13.23;;;;;;;14.11;96.90;100282.84;5039057;28;20541;-81
2022/06/09 04:11:42;;;;;;;18.35;14.60;;;;;;;14.11;96.48;100288.97;5054532;28;20020;-81
2022/06/09 04:14:07;;;;;;;20.45;14.63;;;;;;;14.13;96.71;100292.38;5037624;28;20392;-81
2022/06/09 04:16:38;;;;;;;18.65;15.43;;;;;;;14.16;96.58;100299.28;5038720;28;20024;-81
2022/06/09 04:19:07;;;;;;;18.70;16.55;;;;;;;14.18;96.33;100295.69;5037837;28;20032;-81
2022/06/09 04:21:34;;;;;;;18.90;15.90;;;;;;;14.19;96.36;100292.16;5038679;28;20024;-81
2022/06/09 04:24:00;;;;;;;21.67;16.92;;;;;;;14.19;96.07;100293.91;5038124;28;20017;-81
2022/06/09 04:26:28;;;;;;;21.83;17.13;;;;;;;14.27;95.78;100297.09;5038204;28;20397;-81
2022/06/09 04:28:54;;;;;;;23.33;17.23;;;;;;;14.23;95.96;100303.38;5037206;28;20031;-81
2022/06/09 04:31:20;;;;;;;24.13;17.02;;;;;;;14.26;95.70;100297.16;5039019;28;20493;-82
2022/06/09 04:33:46;;;;;;;23.05;17.02;;;;;;;14.24;95.95;100304.25;5041167;28;20036;-81
2022/06/09 04:36:12;;;;;;;19.85;17.60;;;;;;;14.27;96.04;100297.09;5041325;28;20460;-81
2022/06/09 04:38:38;;;;;;;27.92;17.40;;;;;;;14.23;96.47;100307.78;5041534;28;20024;-81
2022/06/09 04:41:09;;;;;;;19.98;17.17;;;;;;;14.21;96.35;100310.47;5041383;28;20035;-81
2022/06/09 04:43:35;;;;;;;22.02;18.40;;;;;;;14.20;96.77;100314.00;5041893;28;20016;-81
2022/06/09 04:46:01;;;;;;;25.05;18.42;;;;;;;14.22;96.99;100321.81;5041056;28;20024;-81
2022/06/09 04:48:26;;;;;;;23.83;19.15;;;;;;;14.18;96.48;100315.84;5041438;28;20025;-81
2022/06/09 04:50:51;;;;;;;25.25;18.75;;;;;;;14.17;96.76;100308.88;5041167;28;20078;-81
2022/06/09 04:53:17;;;;;;;21.92;19.05;;;;;;;14.19;95.56;100322.78;5041307;28;20034;-83
2022/06/09 04:55:43;;;;;;;21.63;19.33;;;;;;;14.16;95.77;100330.81;5042565;28;20048;-83
2022/06/09 04:58:09;;;;;;;23.92;20.55;;;;;;;14.14;96.10;100333.50;5041158;28;20107;-83
2022/06/09 05:00:34;;;;;;;24.30;19.48;;;;;;;14.14;96.36;100335.28;5041161;28;20459;-83
2022/06/09 05:03:00;;;;;;;25.65;19.65;;;;;;;14.13;96.90;100338.81;5041086;28;20025;-83
2022/06/09 05:05:29;;;;;;;29.38;20.85;;;;;;;14.13;96.91;100339.66;5041851;28;20024;-83
2022/06/09 05:07:55;;;;;;;23.33;20.55;;;;;;;14.16;96.83;100336.06;5041317;28;20016;-83
2022/06/09 05:10:21;;;;;;;27.95;20.52;;;;;;;14.17;96.68;100336.00;5041471;28;20477;-84
2022/06/09 05:12:46;;;;;;;26.90;20.10;;;;;;;14.20;96.99;100342.91;5040488;28;20024;-83
2022/06/09 05:15:17;;;;;;;26.90;21.27;;;;;;;14.23;97.46;100345.41;5040751;28;20497;-83
2022/06/09 05:17:43;;;;;;;27.80;20.83;;;;;;;14.27;97.50;100335.66;5040022;28;20109;-83
2022/06/09 05:20:15;;;;;;;26.42;21.00;;;;;;;14.31;97.08;100340.72;5040705;28;20060;-83
2022/06/09 05:22:41;;;;;;;23.85;19.80;;;;;;;14.35;96.80;100347.56;5057850;28;20473;-83
2022/06/09 05:25:08;;;;;;;27.15;21.15;;;;;;;14.39;96.69;100355.38;5041498;28;20027;-83
2022/06/09 05:27:33;;;;;;;24.63;20.40;;;;;;;14.44;96.28;100369.16;5040576;28;20398;-83
2022/06/09 05:30:00;;;;;;;27.23;21.45;;;;;;;14.43;96.05;100354.34;5040229;28;20016;-83
2022/06/09 05:32:25;;;;;;;26.02;20.92;;;;;;;14.44;96.16;100351.66;5040271;28;20040;-83
2022/06/09 05:34:51;;;;;;;21.38;19.10;;;;;;;14.45;95.99;100365.63;5056584;28;20020;-83
2022/06/09 05:37:16;;;;;;;25.02;21.17;;;;;;;14.48;95.37;100360.25;5040924;28;20498;-83
2022/06/09 05:45:10;;;;;;;25.02;19.00;;;;;;;14.51;94.70;100365.41;5059803;28;20031;-83
2022/06/09 05:47:36;;;;;;;21.83;19.17;;;;;;;14.55;95.00;100380.16;5039552;28;20225;-83
2022/06/09 05:50:02;;;;;;;23.85;19.27;;;;;;;14.57;94.14;100386.19;5039888;28;20021;-83
2022/06/09 05:52:29;;;;;;;23.67;19.17;;;;;;;14.56;94.44;100386.25;5039348;28;20028;-83
2022/06/09 05:54:54;;;;;;;24.13;19.33;;;;;;;14.54;94.82;100383.69;5039309;28;20028;-83
2022/06/09 05:57:21;;;;;;;21.27;17.95;;;;;;;14.57;94.48;100401.97;5039902;28;20499;-83
2022/06/09 05:59:46;;;;;;;27.15;18.75;;;;;;;14.57;94.95;100407.22;5039703;28;20040;-84
2022/06/09 06:02:12;;;;;;;23.05;18.10;;;;;;;14.57;94.64;100417.72;5039578;28;20033;-83
2022/06/09 06:04:38;;;;;;;23.20;17.45;;;;;;;14.60;94.83;100412.38;5039414;28;20047;-83
2022/06/09 06:07:04;;;;;;;19.60;16.85;;;;;;;14.64;93.93;100421.91;5039127;28;20020;-83
2022/06/09 06:09:30;;;;;;;19.33;17.25;;;;;;;14.68;93.81;100428.75;5039011;28;20035;-83
2022/06/09 06:11:55;;;;;;;18.20;16.30;;;;;;;14.69;93.04;100438.34;5039476;28;20020;-84
2022/06/09 06:14:22;;;;;;;21.73;16.52;;;;;;;14.74;93.38;100434.69;5039736;28;20321;-82
2022/06/09 06:16:48;;;;;;;19.92;16.35;;;;;;;14.76;92.05;100440.75;5040601;28;20030;-84
2022/06/09 06:19:17;;;;;;;20.90;15.63;;;;;;;14.79;92.54;100448.50;5039970;28;20028;-83
2022/06/09 06:21:42;;;;;;;21.08;15.80;;;;;;;14.80;90.84;100450.22;5040831;28;20098;-84
2022/06/09 06:24:09;;;;;;;17.55;15.75;;;;;;;14.80;90.82;100456.34;5042590;28;20040;-83
2022/06/09 06:26:35;;;;;;;16.95;15.18;;;;;;;14.84;90.88;100454.47;5040114;28;20101;-84
2022/06/09 06:29:01;;;;;;;18.85;14.95;;;;;;;14.85;91.23;100453.56;5039882;28;20024;-84
2022/06/09 06:31:26;;;;;;;17.25;15.43;;;;;;;14.90;90.09;100458.63;5039952;28;20024;-84
2022/06/09 06:33:52;;;;;;;16.63;13.88;;;;;;;14.93;89.89;100463.75;5056746;28;20131;-83
2022/06/09 06:36:17;;;;;;;15.57;13.57;;;;;;;14.95;89.65;100462.78;5040624;28;20024;-83
2022/06/09 06:38:43;;;;;;;16.42;13.23;;;;;;;14.93;89.57;100467.28;5039295;28;20028;-83
2022/06/09 06:41:12;;;;;;;13.85;12.20;;;;;;;14.95;89.67;100462.78;5038561;28;20020;-83
2022/06/09 06:43:37;;;;;;;16.55;11.82;;;;;;;14.96;89.89;100477.66;5038548;28;20024;-83
2022/06/09 06:46:03;;;;;;;12.95;11.70;;;;;;;14.93;89.53;100483.03;5038200;28;20469;-82
2022/06/09 06:48:32;;;;;;;13.30;11.27;;;;;;;14.94;89.23;100481.25;5038393;28;20028;-84
2022/06/09 06:50:58;;;;;;;11.57;10.38;;;;;;;14.90;88.60;100485.78;5038228;28;20505;-83
2022/06/09 06:53:25;;;;;;;12.57;10.40;;;;;;;14.87;87.96;100488.53;5021969;28;20097;-85
2022/06/09 06:55:50;;;;;;;10.90;9.88;;;;;;;14.85;89.35;100499.09;5038239;28;20024;-84
2022/06/09 06:58:16;;;;;;;11.98;10.63;;;;;;;14.84;89.75;100496.53;5037945;28;20102;-83
2022/06/09 07:00:42;;;;;;;10.60;9.48;;;;;;;14.85;88.55;100495.63;5038103;28;20025;-84
2022/06/09 07:03:09;;;;;;;12.90;9.88;;;;;;;14.81;88.24;100505.38;5038390;28;20021;-83
2022/06/09 07:05:36;;;;;;;11.85;10.65;;;;;;;14.82;88.36;100514.13;5038114;28;20089;-84
2022/06/09 07:08:03;;;;;;;10.38;9.38;;;;;;;14.78;88.58;100512.53;5037780;28;20024;-83
2022/06/09 07:10:31;;;;;;;11.80;10.38;;;;;;;14.78;88.83;100513.41;5038089;28;20405;-84
2022/06/09 07:12:57;;;;;;;11.43;10.30;;;;;;;14.83;88.59;100518.47;5038058;28;20116;-84
2022/06/09 07:15:22;;;;;;;12.52;11.25;;;;;;;14.85;88.05;100516.66;5038208;28;20477;-84
2022/06/09 07:17:48;;;;;;;13.63;10.40;;;;;;;14.86;88.53;100518.34;5054615;28;20017;-84
2022/06/09 07:20:14;;;;;;;14.65;11.60;;;;;;;14.93;87.59;100529.50;5037614;28;20031;-84
2022/06/09 07:22:40;;;;;;;17.08;11.50;;;;;;;15.01;86.78;100527.44;5022169;28;20025;-83
2022/06/09 07:25:06;;;;;;;12.75;10.57;;;;;;;15.04;87.81;100525.56;5018341;28;20074;-84
2022/06/09 07:27:32;;;;;;;11.88;10.27;;;;;;;15.08;87.61;100539.47;5018253;28;20376;-84
2022/06/09 07:29:58;;;;;;;12.07;10.85;;;;;;;15.08;86.86;100543.88;5017982;28;20021;-84
2022/06/09 07:32:23;;;;;;;14.55;10.43;;;;;;;15.09;86.45;100540.31;5018272;28;20052;-85
2022/06/09 07:34:49;;;;;;;13.32;11.07;;;;;;;15.08;86.18;100547.38;5034674;28;20048;-83
2022/06/09 07:37:14;;;;;;;12.85;10.30;;;;;;;15.03;86.23;100544.03;5034801;28;20017;-84
2022/06/09 07:39:40;;;;;;;14.02;10.52;;;;;;;15.00;86.74;100552.91;5017992;28;20017;-84
2022/06/09 07:42:06;;;;;;;13.93;11.43;;;;;;;14.99;86.04;100556.44;5018317;28;20025;-83
2022/06/09 07:44:32;;;;;;;15.02;10.95;;;;;;;14.98;86.05;100560.00;5034489;28;20075;-83
2022/06/09 07:46:57;;;;;;;15.13;12.00;;;;;;;14.95;87.64;100562.72;5018047;28;20025;-83
2022/06/09 07:49:23;;;;;;;15.80;11.40;;;;;;;14.95;88.11;100565.34;5034489;28;20036;-83
2022/06/09 07:51:48;;;;;;;12.73;11.48;;;;;;;14.90;88.30;100559.41;5017978;28;20021;-83
2022/06/09 07:54:14;;;;;;;20.70;12.32;;;;;;;14.84;88.60;100572.78;5017678;28;20167;-83
2022/06/09 07:56:40;;;;;;;15.32;12.10;;;;;;;14.79;89.41;100569.47;5018070;28;20394;-83
2022/06/09 07:59:06;;;;;;;16.67;12.90;;;;;;;14.77;90.28;100574.78;5034062;28;20032;-83
2022/06/09 08:01:32;;;;;;;13.98;12.43;;;;;;;14.73;91.26;100569.69;5017650;28;20040;-83
2022/06/09 08:03:58;;;;;;;15.68;12.90;;;;;;;14.70;91.36;100584.66;5017835;28;20055;-83
2022/06/09 08:06:23;;;;;;;16.35;13.30;;;;;;;14.67;90.93;100582.13;5019269;28;20060;-83
2022/06/09 08:08:55;;;;;;;15.18;13.52;;;;;;;14.69;91.41;100580.28;5021560;28;20053;-83
2022/06/09 08:11:21;;;;;;;19.33;12.13;;;;;;;14.77;90.94;100592.34;5021669;28;20471;-84
2022/06/09 08:13:46;;;;;;;17.17;12.40;;;;;;;14.78;90.13;100596.66;5021219;28;20025;-83
2022/06/09 08:16:12;;;;;;;12.70;10.93;;;;;;;14.82;90.93;100587.75;5054517;28;20059;-84
2022/06/09 08:18:37;;;;;;;13.00;10.98;;;;;;;14.86;89.18;100602.50;5021098;28;20031;-84
2022/06/09 08:21:03;;;;;;;16.15;11.73;;;;;;;14.91;89.57;100595.31;5021162;28;20120;-83
2022/06/09 08:23:29;;;;;;;11.45;10.25;;;;;;;15.01;89.30;100606.34;5037270;28;20021;-84
2022/06/09 08:25:58;;;;;;;16.23;10.82;;;;;;;15.06;89.70;100599.16;5021142;28;20490;-84
2022/06/09 08:28:24;;;;;;;14.13;10.18;;;;;;;15.14;89.10;100615.53;5021310;28;20052;-84
2022/06/09 08:30:53;;;;;;;14.95;10.35;;;;;;;15.22;87.49;100617.88;5020804;28;20086;-84
2022/06/09 08:33:20;;;;;;;15.77;10.10;;;;;;;15.25;87.00;100625.66;5020958;28;20025;-84
2022/06/09 08:35:45;;;;;;;11.27;10.07;;;;;;;15.33;86.06;100628.00;5021011;28;20391;-84
2022/06/09 08:38:11;;;;;;;14.02;9.85;;;;;;;15.36;86.51;100634.00;5020389;28;20087;-83
2022/06/09 08:40:39;;;;;;;10.82;9.55;;;;;;;15.43;86.06;100639.91;5020659;28;20393;-84
2022/06/09 08:43:26;;;;;;;12.98;9.27;;;;;;;15.51;85.53;100637.00;5037399;28;20091;-84
2022/06/09 08:45:55;;;;;;;14.15;10.00;;;;;;;15.57;85.03;100642.03;5037410;28;20478;-84
2022/06/09 08:48:23;;;;;;;11.82;9.90;;;;;;;15.64;84.39;100638.25;5020847;28;20021;-84
2022/06/09 08:51:06;;;;;;;11.35;8.98;;;;;;;15.69;81.92;100635.44;5020361;28;20166;-84
2022/06/09 08:53:37;;;;;;;10.57;9.45;;;;;;;15.74;83.00;100635.25;5020636;28;20028;-84
2022/06/09 08:56:26;;;;;;;9.50;8.60;;;;;;;15.78;83.31;100645.59;5020813;28;20394;-84
2022/06/09 08:59:12;;;;;;;10.45;8.90;;;;;;;15.86;81.61;100653.25;5106051;22;20047;-82
2022/06/09 09:01:48;;;;;;;12.38;8.75;;;;;;;15.87;80.79;100658.47;5061082;28;20032;-82
2022/06/09 09:04:21;;;;;;;9.55;8.10;;;;;;;15.90;82.54;100660.13;5077653;28;20031;-83
2022/06/09 09:06:58;;;;;;;9.15;8.35;;;;;;;15.95;81.14;100652.91;5060687;28;20158;-83
2022/06/09 09:09:29;;;;;;;8.88;7.78;;;;;;;15.94;82.38;100651.19;5056974;28;20524;-83
2022/06/09 09:12:05;;;;;;;8.63;7.15;;;;;;;16.00;84.06;100657.97;5040466;28;20028;-83
2022/06/09 09:15:16;;;;;;;8.30;6.95;;;;;;;16.06;83.93;100665.66;5057066;28;20381;-83
2022/06/09 09:17:50;;;;;;;10.57;7.38;;;;;;;16.15;82.80;100675.81;5070471;28;20512;-82
2022/06/09 09:20:20;;;;;;;7.20;6.50;;;;;;;16.20;81.92;100678.28;5073615;28;20036;-82
2022/06/09 09:22:55;;;;;;;7.07;6.45;;;;;;;16.26;81.40;100682.44;5056750;28;20474;-82
2022/06/09 09:25:59;;;;;;;10.90;7.22;;;;;;;16.28;79.22;100691.13;5056770;28;20536;-82
2022/06/09 09:28:30;;;;;;;7.97;7.22;;;;;;;16.23;78.47;100692.16;5056719;28;20036;-83
2022/06/09 09:30:59;;;;;;;7.97;7.25;;;;;;;16.13;79.07;100682.03;5040204;28;20393;-82
2022/06/09 09:33:25;;;;;;;9.55;7.45;;;;;;;16.06;80.00;100692.00;5056500;28;20067;-83
2022/06/09 09:35:58;;;;;;;9.93;6.30;;;;;;;16.08;81.18;100686.66;5039631;28;20052;-82
2022/06/09 09:38:25;;;;;;;8.55;7.32;;;;;;;16.17;79.34;100697.69;5039441;28;20032;-83
2022/06/09 09:40:58;;;;;;;8.50;7.57;;;;;;;16.24;79.46;100695.69;5039615;28;20028;-82
2022/06/09 09:43:26;;;;;;;14.00;7.72;;;;;;;16.20;79.25;100715.16;5039599;28;20052;-83
2022/06/09 09:45:54;;;;;;;7.70;7.10;;;;;;;16.14;79.35;100715.38;5039794;28;20023;-83
2022/06/09 09:48:19;;;;;;;9.10;7.15;;;;;;;16.14;78.86;100715.38;5039452;28;20032;-83
2022/06/09 09:50:48;;;;;;;7.63;6.85;;;;;;;16.16;79.43;100718.84;5056006;28;20111;-83
2022/06/09 09:53:22;;;;;;;7.63;6.85;;;;;;;16.21;79.41;100717.75;5055956;28;20033;-82
2022/06/09 09:55:56;;;;;;;7.35;6.57;;;;;;;16.28;79.26;100722.75;5074469;28;20035;-82
2022/06/09 09:58:22;;;;;;;7.47;6.78;;;;;;;16.36;78.15;100734.72;5056025;28;20119;-83
2022/06/09 10:00:54;;;;;;;7.43;6.75;;;;;;;16.39;78.82;100729.31;5055845;28;20047;-82
2022/06/09 10:09:38;;;;;;;7.53;6.53;;;;;;;16.56;77.55;100744.47;5058970;28;20444;-82
2022/06/09 10:12:28;;;;;;;7.45;6.75;;;;;;;16.65;75.98;100737.97;5049565;28;20114;-83
2022/06/09 10:14:55;;;;;;;7.78;6.00;;;;;;;16.64;77.49;100730.97;5055747;28;20038;-83
2022/06/09 10:17:56;;;;;;;8.20;6.75;;;;;;;16.69;76.08;100734.28;5055511;28;20024;-83
2022/06/09 10:20:30;;;;;;;7.45;6.85;;;;;;;16.63;75.80;100738.94;5023389;28;20039;-82
2022/06/09 10:22:56;;;;;;;7.88;7.18;;;;;;;16.63;76.97;100745.06;5055350;28;20025;-84
2022/06/09 10:25:24;;;;;;;8.25;6.60;;;;;;;16.70;76.30;100762.38;5055221;28;20378;-82
2022/06/09 10:27:53;;;;;;;7.35;6.65;;;;;;;16.82;74.90;100746.94;5055336;28;20078;-83
2022/06/09 10:30:26;;;;;;;7.80;7.15;;;;;;;16.95;75.32;100755.25;5038383;28;20024;-82
2022/06/09 10:33:08;;;;;;;6.85;6.22;;;;;;;17.05;75.69;100754.78;5038530;28;20448;-82
2022/06/09 10:35:40;;;;;;;7.95;7.25;;;;;;;17.22;74.73;100753.22;5038597;28;20031;-82
2022/06/09 10:38:17;;;;;;;8.75;6.43;;;;;;;17.26;73.10;100749.53;5038238;28;20024;-82
2022/06/09 10:40:48;;;;;;;8.20;7.45;;;;;;;17.34;71.05;100763.25;5038260;28;20063;-82
2022/06/09 10:43:34;;;;;;;8.38;7.80;;;;;;;17.28;72.10;100762.66;5038950;28;20117;-82
2022/06/09 10:46:11;;;;;;;7.70;7.10;;;;;;;17.23;72.81;100776.03;5038572;28;20109;-82
2022/06/09 10:57:12;;;;;;;6.07;5.47;;;;;;;17.49;72.95;100776.69;5072716;28;20146;-81
2022/06/09 10:59:52;;;;;;;7.18;6.43;;;;;;;17.44;72.14;100784.84;5071124;28;20029;-83
2022/06/09 11:02:21;;;;;;;6.40;5.90;;;;;;;17.40;72.71;100781.47;5038185;28;20056;-84
2022/06/09 11:04:48;;;;;;;7.80;5.82;;;;;;;17.38;73.00;100791.25;5038256;28;20112;-82
2022/06/09 11:07:47;;;;;;;8.32;7.05;;;;;;;17.45;72.04;100785.69;5037993;28;20026;-83
2022/06/09 11:10:37;;;;;;;6.28;5.88;;;;;;;17.49;71.50;100787.25;5054365;28;20024;-82
2022/06/09 11:13:21;;;;;;;6.40;5.90;;;;;;;17.52;72.29;100784.47;5054604;28;20075;-83
2022/06/09 11:16:19;;;;;;;6.57;6.07;;;;;;;17.53;72.16;100788.84;5054625;28;20056;-83
2022/06/09 11:19:21;;;;;;;7.70;6.70;;;;;;;17.43;71.39;100792.81;5050960;28;20048;-83
2022/06/09 11:21:49;;;;;;;7.28;6.68;;;;;;;17.34;71.79;100794.94;5072576;28;20475;-83
2022/06/09 11:24:33;;;;;;;6.55;6.03;;;;;;;17.32;72.44;100791.50;5054507;28;20042;-82
2022/06/09 11:27:05;;;;;;;9.03;7.27;;;;;;;17.41;71.38;100795.53;5054509;28;20035;-82
2022/06/09 11:29:46;;;;;;;5.88;5.47;;;;;;;17.43;71.83;100801.59;5054859;28;20305;-82
2022/06/09 11:32:21;;;;;;;6.13;5.57;;;;;;;17.40;71.07;100805.22;5054469;28;20031;-83
2022/06/09 11:35:17;;;;;;;6.57;5.97;;;;;;;17.42;71.73;100804.31;5054200;28;20024;-83
2022/06/09 11:37:51;;;;;;;5.93;5.53;;;;;;;17.48;72.81;100801.38;5071197;28;20489;-82
2022/06/09 11:40:32;;;;;;;5.75;5.22;;;;;;;17.67;71.36;100810.25;5054104;28;20025;-82
2022/06/09 11:43:03;;;;;;;6.30;5.70;;;;;;;17.78;70.54;100816.81;5054562;28;20037;-83
2022/06/09 11:45:59;;;;;;;4.85;4.45;;;;;;;18.00;70.95;100819.41;5054276;28;20041;-83
2022/06/09 11:48:24;;;;;;;7.40;5.25;;;;;;;18.13;70.77;100814.41;5049026;28;20045;-84
2022/06/09 11:50:50;;;;;;;4.72;4.32;;;;;;;18.28;70.66;100818.13;5054334;28;20465;-84